Time;durP1;ratioP1;P1;durP2;ratioP2;P2;SDS_P1;SDS_P2;PMS_P1;PMS_P2;Temp;Humidity;BMP_temperature;BMP_pressure;BME280_temperature;BME280_humidity;BME280_pressure;Samples;Min_cycle;Max_cycle;Signal;HPM_P1;HPM_P2
2022/03/14 00:01:15;;;;;;;12.93;10.57;;;10.40;47.90;;;;;;5020327;28;20459;-46
2022/03/14 00:03:50;;;;;;;16.30;10.70;;;10.40;47.90;;;;;;5023769;28;20467;-46
2022/03/14 00:06:17;;;;;;;15.27;11.37;;;10.40;47.90;;;;;;5021207;28;20542;-46
2022/03/14 00:08:45;;;;;;;18.23;13.33;;;10.40;48.00;;;;;;5019024;28;20471;-46
2022/03/14 00:11:14;;;;;;;14.17;11.33;;;10.40;48.20;;;;;;5019251;28;20470;-46
2022/03/14 00:13:46;;;;;;;14.47;11.17;;;10.40;48.30;;;;;;5003113;28;20475;-46
2022/03/14 00:16:22;;;;;;;14.23;11.83;;;10.40;48.10;;;;;;5020469;28;20467;-46
2022/03/14 00:18:51;;;;;;;14.00;12.13;;;10.50;47.50;;;;;;5022628;28;20805;-46
2022/03/14 00:21:21;;;;;;;15.13;11.80;;;10.50;47.90;;;;;;5018148;28;20458;-46
2022/03/14 00:23:48;;;;;;;17.40;13.43;;;10.50;47.40;;;;;;5022210;28;20498;-46
2022/03/14 00:26:15;;;;;;;16.80;12.63;;;10.50;47.40;;;;;;5018610;28;20547;-46
2022/03/14 00:28:42;;;;;;;14.30;11.83;;;10.50;47.50;;;;;;5018952;28;20893;-46
2022/03/14 00:31:09;;;;;;;16.07;11.67;;;10.40;47.50;;;;;;5019149;28;20455;-46
2022/03/14 00:33:36;;;;;;;13.87;10.40;;;10.40;47.60;;;;;;5017048;28;20466;-46
2022/03/14 00:36:04;;;;;;;13.30;10.77;;;10.40;47.40;;;;;;5021817;28;20491;-46
2022/03/14 00:38:31;;;;;;;17.27;11.13;;;10.40;47.30;;;;;;5016440;28;20563;-46
2022/03/14 00:40:59;;;;;;;13.30;10.90;;;10.40;47.10;;;;;;5017919;28;20464;-46
2022/03/14 00:43:26;;;;;;;17.30;12.13;;;10.40;47.40;;;;;;5034009;28;20459;-46
2022/03/14 00:45:53;;;;;;;14.30;10.80;;;10.40;47.50;;;;;;5002392;28;20484;-46
2022/03/14 00:48:20;;;;;;;14.47;11.87;;;10.40;47.50;;;;;;5037659;28;21076;-46
2022/03/14 00:50:47;;;;;;;14.03;10.57;;;10.40;47.70;;;;;;5020611;28;20477;-46
2022/03/14 00:53:13;;;;;;;15.93;12.43;;;10.40;48.30;;;;;;5020282;28;20463;-46
2022/03/14 00:55:40;;;;;;;13.00;10.70;;;10.40;48.90;;;;;;5017288;28;20472;-46
2022/03/14 00:58:10;;;;;;;15.47;10.80;;;10.40;48.70;;;;;;5019678;28;20487;-46
2022/03/14 01:00:36;;;;;;;12.30;10.97;;;10.30;48.40;;;;;;5014577;28;20460;-46
2022/03/14 01:03:04;;;;;;;14.13;11.17;;;10.30;48.40;;;;;;5007339;28;20545;-46
2022/03/14 01:05:31;;;;;;;18.87;12.40;;;10.30;48.30;;;;;;5021058;28;20534;-45
2022/03/14 01:07:58;;;;;;;15.37;12.43;;;10.30;48.40;;;;;;5020114;28;20478;-46
2022/03/14 01:10:24;;;;;;;15.50;12.27;;;10.30;48.30;;;;;;4998175;28;20463;-46
2022/03/14 01:12:51;;;;;;;14.00;11.80;;;10.30;48.50;;;;;;5032571;28;20542;-46
2022/03/14 01:15:18;;;;;;;19.40;13.00;;;10.20;48.70;;;;;;5020627;28;20495;-46
2022/03/14 01:17:45;;;;;;;15.43;11.93;;;10.30;48.40;;;;;;5020267;28;20488;-45
2022/03/14 01:20:11;;;;;;;11.90;10.27;;;10.40;48.00;;;;;;5021437;28;20470;-45
2022/03/14 01:22:38;;;;;;;18.57;11.57;;;10.40;48.40;;;;;;5019199;28;20862;-46
2022/03/14 01:25:06;;;;;;;18.07;12.07;;;10.30;48.30;;;;;;5019747;28;20464;-45
2022/03/14 01:27:33;;;;;;;13.10;9.87;;;10.20;47.80;;;;;;5020380;28;20804;-45
2022/03/14 01:29:59;;;;;;;13.50;11.40;;;10.20;48.20;;;;;;5020660;28;20693;-45
2022/03/14 01:32:26;;;;;;;14.33;9.93;;;10.30;46.70;;;;;;5019364;28;20538;-46
2022/03/14 01:34:53;;;;;;;18.90;11.80;;;10.30;47.00;;;;;;5019506;28;20466;-46
2022/03/14 01:37:20;;;;;;;16.03;12.57;;;10.30;46.60;;;;;;5019038;28;21026;-46
2022/03/14 01:39:47;;;;;;;16.67;12.17;;;10.30;46.40;;;;;;5015981;28;20561;-46
2022/03/14 01:42:20;;;;;;;15.80;11.30;;;10.30;46.60;;;;;;5016983;28;20641;-46
2022/03/14 01:44:48;;;;;;;16.20;12.07;;;10.30;47.40;;;;;;5018366;28;20460;-45
2022/03/14 01:47:15;;;;;;;18.43;11.93;;;10.40;47.90;;;;;;5007669;28;20824;-45
2022/03/14 01:49:43;;;;;;;16.90;11.10;;;10.40;48.40;;;;;;5018373;28;20463;-46
2022/03/14 01:52:11;;;;;;;17.57;12.20;;;10.50;50.70;;;;;;5020688;28;20452;-46
2022/03/14 01:54:39;;;;;;;15.07;11.13;;;10.50;51.40;;;;;;5016899;28;20457;-46
2022/03/14 01:57:07;;;;;;;13.90;11.47;;;10.50;53.80;;;;;;5031588;28;20553;-46
2022/03/14 01:59:37;;;;;;;18.30;11.63;;;10.60;55.50;;;;;;5016382;28;20474;-46
2022/03/14 02:02:04;;;;;;;16.00;12.07;;;10.70;57.50;;;;;;5019639;28;20456;-46
2022/03/14 02:04:31;;;;;;;12.90;10.70;;;10.70;58.40;;;;;;5034999;28;20576;-46
2022/03/14 02:06:58;;;;;;;10.67;9.53;;;10.70;60.30;;;;;;5023052;28;20673;-46
2022/03/14 02:09:25;;;;;;;15.00;9.70;;;10.70;66.20;;;;;;5000271;28;20467;-46
2022/03/14 02:11:57;;;;;;;11.30;8.70;;;10.80;67.60;;;;;;5014836;28;20467;-46
2022/03/14 02:14:24;;;;;;;12.63;9.07;;;10.80;69.30;;;;;;5015562;28;20526;-46
2022/03/14 02:16:52;;;;;;;11.40;8.90;;;10.80;70.30;;;;;;5016484;28;20464;-46
2022/03/14 02:19:19;;;;;;;9.10;7.73;;;10.80;70.30;;;;;;5006240;28;20483;-46
2022/03/14 02:21:45;;;;;;;10.93;8.20;;;10.90;70.50;;;;;;5017264;28;20462;-46
2022/03/14 02:24:12;;;;;;;12.17;7.70;;;10.80;71.00;;;;;;5014676;28;20464;-46
2022/03/14 02:26:41;;;;;;;9.40;7.03;;;10.80;72.20;;;;;;5020375;28;20552;-46
2022/03/14 02:29:08;;;;;;;9.97;8.07;;;10.90;73.40;;;;;;5017242;28;20447;-45
2022/03/14 02:31:39;;;;;;;11.37;8.20;;;10.90;74.30;;;;;;5015776;28;20944;-46
2022/03/14 02:34:07;;;;;;;9.60;7.40;;;10.80;74.80;;;;;;5004317;28;20856;-45
2022/03/14 02:36:38;;;;;;;9.30;7.20;;;10.80;75.20;;;;;;5014597;28;20452;-45
2022/03/14 02:39:08;;;;;;;7.10;5.77;;;10.80;76.20;;;;;;5019140;28;20583;-46
2022/03/14 02:41:36;;;;;;;6.37;5.73;;;10.70;76.60;;;;;;5017094;28;20452;-45
2022/03/14 02:44:08;;;;;;;6.80;4.70;;;10.70;76.00;;;;;;5006267;28;20459;-46
2022/03/14 02:46:37;;;;;;;4.80;4.37;;;10.60;77.00;;;;;;5017337;28;20558;-46
2022/03/14 02:49:11;;;;;;;4.07;3.67;;;10.60;77.20;;;;;;5013179;28;20472;-45
2022/03/14 02:51:39;;;;;;;7.20;3.50;;;10.60;77.00;;;;;;5029300;28;20812;-46
2022/03/14 02:54:08;;;;;;;3.67;3.30;;;10.60;77.60;;;;;;5017759;28;20543;-46
2022/03/14 02:56:39;;;;;;;4.53;3.40;;;10.50;77.60;;;;;;5014407;28;20464;-46
2022/03/14 02:59:07;;;;;;;3.57;2.57;;;10.50;78.00;;;;;;5019034;28;20570;-45
2022/03/14 03:01:34;;;;;;;4.80;2.73;;;10.40;79.30;;;;;;5019853;28;20455;-45
2022/03/14 03:04:02;;;;;;;3.90;3.50;;;10.40;79.80;;;;;;5016868;28;20450;-45
2022/03/14 03:06:32;;;;;;;4.77;3.60;;;10.30;80.40;;;;;;5015146;28;20468;-45
2022/03/14 03:08:59;;;;;;;4.60;3.90;;;10.30;81.20;;;;;;5016656;28;20515;-45
2022/03/14 03:11:26;;;;;;;4.53;3.60;;;10.30;81.80;;;;;;5016717;28;20454;-46
2022/03/14 03:13:54;;;;;;;4.40;3.17;;;10.20;82.40;;;;;;5020050;28;20563;-46
2022/03/14 03:16:21;;;;;;;4.50;3.30;;;10.20;82.60;;;;;;5015670;28;20470;-45
2022/03/14 03:18:48;;;;;;;3.10;2.80;;;10.10;82.80;;;;;;5015843;28;20933;-45
2022/03/14 03:21:16;;;;;;;3.33;2.57;;;10.10;83.00;;;;;;5012552;28;20447;-45
2022/03/14 03:23:43;;;;;;;6.60;2.90;;;10.10;83.50;;;;;;5019871;28;20846;-46
2022/03/14 03:26:10;;;;;;;5.80;3.60;;;10.00;84.00;;;;;;5022039;28;20455;-46
2022/03/14 03:28:37;;;;;;;3.23;2.67;;;10.00;84.00;;;;;;5021557;28;20945;-46
2022/03/14 03:31:17;;;;;;;3.70;2.60;;;9.90;84.30;;;;;;5015929;28;20465;-46
2022/03/14 03:33:44;;;;;;;4.53;3.70;;;9.80;84.30;;;;;;5019108;28;20463;-46
2022/03/14 03:36:14;;;;;;;3.40;3.00;;;9.80;84.30;;;;;;5019348;28;20470;-46
2022/03/14 03:38:43;;;;;;;4.37;3.13;;;9.80;84.80;;;;;;5023518;28;20514;-45
2022/03/14 03:41:10;;;;;;;3.30;3.00;;;9.80;85.20;;;;;;5017880;28;20528;-45
2022/03/14 03:43:36;;;;;;;3.33;2.60;;;9.80;85.50;;;;;;5023264;28;20462;-45
2022/03/14 03:46:03;;;;;;;3.40;3.10;;;9.70;85.80;;;;;;5016593;28;20448;-45
2022/03/14 03:48:30;;;;;;;3.27;2.97;;;9.70;86.20;;;;;;5021625;28;20486;-45
2022/03/14 03:50:57;;;;;;;3.20;2.90;;;9.70;86.10;;;;;;5018157;28;20976;-45
2022/03/14 03:53:24;;;;;;;3.30;3.00;;;9.60;86.30;;;;;;5017827;28;20448;-45
2022/03/14 03:55:51;;;;;;;4.50;3.40;;;9.60;86.40;;;;;;5023344;28;20458;-45
2022/03/14 03:58:17;;;;;;;3.93;3.53;;;9.60;86.10;;;;;;5020813;28;20987;-44
2022/03/14 04:00:45;;;;;;;3.10;2.80;;;9.60;86.20;;;;;;5016447;28;20455;-44
2022/03/14 04:03:12;;;;;;;3.53;3.23;;;9.60;86.10;;;;;;5015979;28;20474;-45
2022/03/14 04:05:40;;;;;;;3.27;2.97;;;9.60;85.90;;;;;;5014686;28;20579;-45
2022/03/14 04:08:10;;;;;;;3.87;3.50;;;9.60;86.00;;;;;;5021456;28;20824;-45
2022/03/14 04:10:38;;;;;;;4.10;3.00;;;9.60;85.90;;;;;;5017695;28;20472;-45
2022/03/14 04:13:06;;;;;;;3.03;2.83;;;9.60;86.10;;;;;;5022311;28;20939;-45
2022/03/14 04:15:54;;;;;;;5.23;4.20;;;9.70;86.20;;;;;;5015123;28;20456;-45
2022/03/14 04:18:25;;;;;;;3.30;3.00;;;9.70;86.00;;;;;;5019805;28;20812;-45
2022/03/14 04:20:53;;;;;;;3.40;3.10;;;9.70;85.90;;;;;;5032484;28;20451;-45
2022/03/14 04:23:20;;;;;;;4.20;3.60;;;9.70;85.80;;;;;;5019532;28;20538;-45
2022/03/14 04:25:47;;;;;;;3.13;2.60;;;9.70;86.10;;;;;;5017804;28;20451;-45
2022/03/14 04:28:15;;;;;;;3.80;3.30;;;9.80;85.80;;;;;;5019818;28;20455;-45
2022/03/14 04:30:42;;;;;;;3.30;3.00;;;9.80;85.90;;;;;;5018311;28;20676;-45
2022/03/14 04:33:09;;;;;;;5.03;3.67;;;9.80;85.60;;;;;;5006778;28;20461;-45
2022/03/14 04:35:37;;;;;;;3.80;3.20;;;9.80;85.60;;;;;;5017989;28;20502;-45
2022/03/14 04:38:06;;;;;;;3.63;3.30;;;9.80;85.90;;;;;;5016533;28;20471;-45
2022/03/14 04:40:33;;;;;;;3.67;3.23;;;9.80;85.80;;;;;;5004005;28;20448;-45
2022/03/14 04:43:08;;;;;;;4.00;3.23;;;9.80;85.70;;;;;;5020015;28;20471;-45
2022/03/14 04:45:36;;;;;;;3.17;2.87;;;9.80;86.00;;;;;;5023063;28;20946;-45
2022/03/14 04:48:08;;;;;;;3.20;2.80;;;9.90;85.40;;;;;;5025381;28;20583;-45
2022/03/14 04:50:36;;;;;;;3.30;3.00;;;9.90;85.30;;;;;;5017823;28;20819;-45
2022/03/14 04:53:06;;;;;;;4.57;3.27;;;9.80;85.40;;;;;;5019942;28;20762;-45
2022/03/14 04:55:36;;;;;;;4.47;3.10;;;9.90;85.60;;;;;;5018497;28;20451;-45
2022/03/14 04:58:04;;;;;;;4.17;2.80;;;9.90;85.50;;;;;;5021204;28;20551;-45
2022/03/14 05:00:32;;;;;;;4.87;3.70;;;9.80;85.70;;;;;;5020379;28;21032;-45
2022/03/14 05:03:00;;;;;;;3.60;3.30;;;9.80;85.80;;;;;;5005532;28;20988;-45
2022/03/14 05:05:30;;;;;;;5.53;3.93;;;9.70;85.80;;;;;;5019308;28;20871;-45
2022/03/14 05:07:57;;;;;;;6.50;3.87;;;9.70;86.50;;;;;;5020890;28;20737;-45
2022/03/14 05:10:24;;;;;;;4.47;3.37;;;9.70;86.40;;;;;;5022377;28;20466;-45
2022/03/14 05:12:51;;;;;;;3.90;3.43;;;9.70;86.30;;;;;;5023138;28;20468;-45
2022/03/14 05:15:19;;;;;;;3.50;3.20;;;9.70;86.30;;;;;;5008932;28;20464;-45
2022/03/14 05:17:46;;;;;;;5.43;3.90;;;9.70;86.30;;;;;;5003667;28;20462;-45
2022/03/14 05:20:13;;;;;;;4.50;3.80;;;9.70;86.00;;;;;;5018539;28;20616;-45
2022/03/14 05:22:48;;;;;;;4.00;3.53;;;9.60;85.90;;;;;;5022100;28;20460;-45
2022/03/14 05:25:20;;;;;;;2.80;2.60;;;9.60;85.60;;;;;;5008617;28;20463;-45
2022/03/14 05:27:47;;;;;;;3.90;3.50;;;9.60;85.20;;;;;;5018986;28;20456;-45
2022/03/14 05:30:14;;;;;;;5.33;3.20;;;9.50;85.60;;;;;;5018791;28;20467;-45
2022/03/14 05:32:42;;;;;;;4.90;3.87;;;9.50;85.50;;;;;;5016475;28;20475;-45
2022/03/14 05:35:15;;;;;;;3.93;2.77;;;9.50;85.60;;;;;;5016810;28;20463;-45
2022/03/14 05:37:43;;;;;;;3.83;3.33;;;9.40;85.70;;;;;;5018345;28;20471;-45
2022/03/14 05:40:15;;;;;;;3.60;3.30;;;9.40;85.70;;;;;;5015925;28;20557;-45
2022/03/14 05:42:43;;;;;;;3.30;3.00;;;9.40;85.90;;;;;;5031953;28;20543;-45
2022/03/14 05:45:10;;;;;;;3.23;2.93;;;9.40;85.80;;;;;;5005721;28;20455;-45
2022/03/14 05:47:37;;;;;;;3.83;3.00;;;9.30;86.10;;;;;;5015981;28;20484;-45
2022/03/14 05:50:04;;;;;;;2.70;2.50;;;9.30;86.20;;;;;;5020901;28;20459;-45
2022/03/14 05:52:31;;;;;;;2.30;2.17;;;9.30;86.10;;;;;;5029560;28;20460;-45
2022/03/14 05:54:57;;;;;;;4.97;3.07;;;9.30;85.90;;;;;;5018408;28;20483;-45
2022/03/14 05:57:24;;;;;;;2.27;2.07;;;9.20;85.70;;;;;;5032297;28;20466;-45
2022/03/14 05:59:51;;;;;;;2.20;2.03;;;9.30;85.90;;;;;;5001956;28;20497;-45
2022/03/14 06:02:20;;;;;;;3.00;1.90;;;9.20;85.50;;;;;;5015265;28;20461;-45
2022/03/14 06:04:48;;;;;;;2.30;1.93;;;9.20;85.50;;;;;;5030356;28;21188;-45
2022/03/14 06:07:15;;;;;;;2.13;2.00;;;9.20;85.50;;;;;;5013902;28;20482;-45
2022/03/14 06:09:42;;;;;;;1.87;1.73;;;9.20;85.50;;;;;;5019085;28;20466;-45
2022/03/14 06:12:10;;;;;;;2.30;1.80;;;9.20;85.90;;;;;;5015440;28;20558;-45
2022/03/14 06:14:37;;;;;;;2.93;2.00;;;9.10;85.60;;;;;;5019528;28;20812;-45
2022/03/14 06:17:04;;;;;;;1.70;1.60;;;9.10;85.50;;;;;;5016453;28;20468;-45
2022/03/14 06:19:30;;;;;;;2.30;2.00;;;9.10;85.50;;;;;;5016058;28;20497;-45
2022/03/14 06:21:57;;;;;;;2.40;2.10;;;9.20;85.20;;;;;;5018643;28;20460;-45
2022/03/14 06:24:24;;;;;;;3.73;1.87;;;9.20;85.10;;;;;;5013483;28;20533;-45
2022/03/14 06:26:51;;;;;;;1.90;1.70;;;9.20;84.80;;;;;;5031901;28;20466;-45
2022/03/14 06:29:18;;;;;;;3.10;1.60;;;9.20;84.80;;;;;;5018380;28;20460;-45
2022/03/14 06:31:45;;;;;;;2.80;1.43;;;9.20;84.50;;;;;;5016656;28;20456;-45
2022/03/14 06:34:11;;;;;;;2.43;2.23;;;9.20;84.50;;;;;;5016464;28;20463;-45
2022/03/14 06:36:38;;;;;;;1.53;1.43;;;9.20;84.40;;;;;;5019150;28;20462;-45
2022/03/14 06:39:05;;;;;;;2.23;1.40;;;9.30;84.70;;;;;;5016742;28;21085;-45
2022/03/14 06:41:38;;;;;;;2.07;1.57;;;9.30;84.50;;;;;;5003834;28;20518;-45
2022/03/14 06:44:05;;;;;;;1.40;1.30;;;9.30;84.10;;;;;;5012549;28;20470;-45
2022/03/14 06:46:32;;;;;;;2.70;1.70;;;9.30;84.10;;;;;;5005572;28;20476;-45
2022/03/14 06:49:00;;;;;;;2.50;1.63;;;9.30;83.90;;;;;;5014001;28;20471;-45
2022/03/14 06:51:26;;;;;;;5.20;1.70;;;9.30;84.00;;;;;;5019768;28;20464;-45
2022/03/14 06:53:53;;;;;;;1.67;1.33;;;9.30;83.90;;;;;;5014261;28;21018;-45
2022/03/14 06:56:20;;;;;;;2.20;1.50;;;9.30;83.60;;;;;;5024060;28;20817;-45
2022/03/14 06:58:47;;;;;;;4.30;2.30;;;9.30;84.00;;;;;;5001646;28;20488;-45
2022/03/14 07:01:14;;;;;;;7.00;4.83;;;9.20;83.60;;;;;;5034020;28;20462;-45
2022/03/14 07:03:41;;;;;;;6.40;2.17;;;9.20;84.00;;;;;;5008987;28;20864;-45
2022/03/14 07:06:11;;;;;;;2.27;1.70;;;9.20;84.60;;;;;;5023550;28;20463;-45
2022/03/14 07:08:38;;;;;;;2.07;1.97;;;9.20;84.60;;;;;;5021470;28;20490;-45
2022/03/14 07:11:05;;;;;;;3.10;2.27;;;9.20;84.80;;;;;;5023148;28;20797;-45
2022/03/14 07:13:32;;;;;;;7.60;2.50;;;9.30;84.00;;;;;;5021584;28;20471;-45
2022/03/14 07:15:58;;;;;;;2.17;1.97;;;9.30;83.90;;;;;;5022580;28;20968;-45
2022/03/14 07:18:25;;;;;;;8.27;2.53;;;9.30;83.90;;;;;;5021319;28;20460;-45
2022/03/14 07:20:52;;;;;;;2.53;2.07;;;9.30;84.30;;;;;;5024426;28;20524;-45
2022/03/14 07:23:19;;;;;;;2.10;1.90;;;9.30;83.70;;;;;;5025877;28;20590;-45
2022/03/14 07:25:45;;;;;;;4.97;2.27;;;9.30;83.70;;;;;;5015268;28;20463;-45
2022/03/14 07:28:12;;;;;;;5.07;2.63;;;9.30;83.90;;;;;;5021589;28;21261;-45
2022/03/14 07:30:39;;;;;;;4.40;2.73;;;9.30;84.10;;;;;;5017368;28;20467;-45
2022/03/14 07:33:05;;;;;;;4.20;2.57;;;9.40;83.60;;;;;;5019784;28;20460;-45
2022/03/14 07:35:32;;;;;;;3.70;2.20;;;9.40;83.70;;;;;;5020701;28;20469;-45
2022/03/14 07:37:59;;;;;;;3.23;2.93;;;9.50;83.30;;;;;;5019480;28;20464;-45
2022/03/14 07:40:26;;;;;;;3.80;2.40;;;9.50;83.90;;;;;;5019988;28;20959;-45
2022/03/14 07:42:55;;;;;;;4.80;2.77;;;9.50;84.10;;;;;;5020131;28;20558;-45
2022/03/14 07:45:24;;;;;;;7.50;2.90;;;9.50;83.70;;;;;;5020033;28;20594;-45
2022/03/14 07:47:53;;;;;;;5.13;3.20;;;9.60;82.80;;;;;;5019288;28;20491;-45
2022/03/14 07:50:21;;;;;;;11.63;6.27;;;9.60;82.90;;;;;;5021104;28;20530;-45
2022/03/14 07:52:48;;;;;;;15.47;9.97;;;9.70;83.20;;;;;;5017144;28;20456;-45
2022/03/14 07:55:15;;;;;;;8.10;4.07;;;9.60;83.20;;;;;;5008996;28;20979;-45
2022/03/14 07:57:43;;;;;;;5.97;4.00;;;9.70;82.80;;;;;;5018193;28;21037;-45
2022/03/14 08:00:13;;;;;;;3.50;2.87;;;9.70;82.70;;;;;;5015714;28;20483;-45
2022/03/14 08:02:39;;;;;;;5.43;3.43;;;9.70;83.00;;;;;;5023104;28;20466;-45
2022/03/14 08:05:08;;;;;;;9.60;4.20;;;9.70;83.40;;;;;;5019835;28;20547;-45
2022/03/14 08:07:35;;;;;;;5.10;3.27;;;9.70;82.60;;;;;;5014236;28;20464;-45
2022/03/14 08:10:09;;;;;;;5.60;3.63;;;9.70;82.40;;;;;;5020895;28;20826;-45
2022/03/14 08:12:53;;;;;;;3.57;3.20;;;9.70;83.40;;;;;;5018431;28;20903;-45
2022/03/14 08:15:25;;;;;;;6.30;3.40;;;9.70;83.50;;;;;;5009398;28;20461;-45
2022/03/14 08:17:53;;;;;;;5.13;3.10;;;9.80;82.20;;;;;;5019658;28;20455;-45
2022/03/14 08:20:22;;;;;;;4.63;3.63;;;9.80;82.30;;;;;;5019870;28;20905;-45
2022/03/14 08:22:50;;;;;;;6.40;3.90;;;9.80;81.70;;;;;;5022032;28;20460;-45
2022/03/14 08:25:16;;;;;;;4.30;3.47;;;9.80;82.20;;;;;;5014697;28;20460;-45
2022/03/14 08:27:43;;;;;;;6.30;3.60;;;9.80;82.70;;;;;;5017505;28;20460;-45
2022/03/14 08:30:11;;;;;;;8.43;3.77;;;9.90;83.00;;;;;;5027472;28;20464;-45
2022/03/14 08:32:39;;;;;;;6.63;3.10;;;10.00;82.20;;;;;;5020004;28;20471;-45
2022/03/14 08:35:08;;;;;;;5.30;3.80;;;10.00;81.50;;;;;;5010830;28;20466;-45
2022/03/14 08:37:42;;;;;;;9.90;6.23;;;10.00;80.10;;;;;;5022188;28;20910;-46
2022/03/14 08:40:11;;;;;;;6.00;4.00;;;10.00;81.20;;;;;;5022618;28;21057;-45
2022/03/14 08:42:39;;;;;;;8.40;3.67;;;10.10;80.70;;;;;;5020100;28;20463;-45
2022/03/14 08:45:07;;;;;;;3.43;3.03;;;10.10;80.70;;;;;;5020968;28;20462;-46
2022/03/14 08:47:35;;;;;;;4.33;2.70;;;10.20;80.20;;;;;;5019016;28;20487;-45
2022/03/14 08:50:07;;;;;;;6.40;3.37;;;10.30;78.90;;;;;;5023861;28;22025;-46
2022/03/14 08:52:37;;;;;;;3.87;3.07;;;10.50;78.90;;;;;;5019327;28;20472;-46
2022/03/14 08:55:05;;;;;;;6.90;2.80;;;10.60;78.40;;;;;;5003303;28;21074;-45
2022/03/14 08:57:37;;;;;;;6.33;3.50;;;10.70;77.60;;;;;;5018850;28;20497;-45
2022/03/14 09:00:07;;;;;;;8.40;2.77;;;10.70;77.50;;;;;;5011990;28;20494;-45
2022/03/14 09:02:34;;;;;;;3.57;3.10;;;10.80;77.10;;;;;;5024416;28;20960;-45
2022/03/14 09:05:01;;;;;;;2.70;2.20;;;10.80;76.30;;;;;;5004340;28;20468;-45
2022/03/14 09:07:30;;;;;;;5.17;2.87;;;10.90;75.80;;;;;;5016987;28;20836;-45
2022/03/14 09:10:06;;;;;;;7.17;3.07;;;10.80;76.40;;;;;;5017740;28;20976;-45
2022/03/14 09:12:33;;;;;;;5.70;2.70;;;10.90;75.90;;;;;;5020505;28;20473;-45
2022/03/14 09:15:04;;;;;;;7.00;3.30;;;10.80;75.50;;;;;;5018945;28;20451;-45
2022/03/14 09:17:32;;;;;;;5.53;3.17;;;10.80;74.90;;;;;;5020307;28;20470;-46
2022/03/14 09:20:05;;;;;;;6.07;2.50;;;10.80;75.90;;;;;;5020411;28;20494;-45
2022/03/14 09:22:31;;;;;;;6.40;3.30;;;10.90;76.60;;;;;;5018411;28;20459;-45
2022/03/14 09:24:58;;;;;;;5.13;2.83;;;11.00;76.20;;;;;;5033247;28;20459;-45
2022/03/14 09:27:25;;;;;;;6.07;3.20;;;11.10;76.60;;;;;;5019315;28;20465;-45
2022/03/14 09:29:55;;;;;;;4.83;2.63;;;11.20;75.20;;;;;;5019334;28;20501;-45
2022/03/14 09:32:22;;;;;;;2.63;2.07;;;11.30;73.80;;;;;;5017316;28;20910;-45
2022/03/14 09:34:48;;;;;;;4.33;2.20;;;11.50;73.40;;;;;;5019394;28;20468;-46
2022/03/14 09:37:15;;;;;;;5.10;2.97;;;11.60;72.20;;;;;;5021088;28;20470;-46
2022/03/14 09:39:42;;;;;;;2.90;2.60;;;11.80;72.10;;;;;;5019624;28;20492;-46
2022/03/14 09:42:12;;;;;;;4.70;2.67;;;12.00;72.90;;;;;;5020047;28;20456;-46
2022/03/14 09:44:42;;;;;;;1.97;1.87;;;12.20;70.80;;;;;;5021194;28;20535;-46
2022/03/14 09:47:09;;;;;;;4.13;2.10;;;12.30;69.50;;;;;;5021453;28;20497;-46
2022/03/14 09:49:36;;;;;;;10.10;5.90;;;12.40;69.60;;;;;;5018825;28;20496;-46
2022/03/14 09:52:05;;;;;;;3.80;2.30;;;12.40;70.00;;;;;;5018911;28;20482;-45
2022/03/14 09:54:32;;;;;;;4.57;2.57;;;12.30;69.60;;;;;;5018442;28;20452;-46
2022/03/14 09:57:01;;;;;;;3.30;2.37;;;12.30;69.70;;;;;;5019773;28;20456;-46
2022/03/14 09:59:28;;;;;;;5.13;2.37;;;12.20;70.60;;;;;;5022821;28;20945;-46
2022/03/14 10:01:55;;;;;;;3.90;2.30;;;12.10;71.00;;;;;;5023228;28;20486;-46
2022/03/14 10:04:22;;;;;;;2.57;2.33;;;12.00;70.40;;;;;;5018333;28;20492;-46
2022/03/14 10:06:49;;;;;;;4.47;2.50;;;11.90;70.80;;;;;;5018371;28;20474;-46
2022/03/14 10:09:16;;;;;;;2.63;2.30;;;11.90;72.20;;;;;;5017572;28;20444;-46
2022/03/14 10:11:44;;;;;;;5.47;1.83;;;11.80;70.90;;;;;;5006823;28;20472;-45
2022/03/14 10:14:18;;;;;;;5.53;1.97;;;11.80;70.90;;;;;;5015221;28;20445;-46
2022/03/14 10:16:45;;;;;;;6.87;1.90;;;11.70;70.10;;;;;;5019644;28;20825;-46
2022/03/14 10:19:20;;;;;;;4.63;1.80;;;11.60;70.40;;;;;;5018394;28;20440;-46
2022/03/14 10:21:50;;;;;;;1.90;1.60;;;11.50;70.50;;;;;;5004025;28;20827;-46
2022/03/14 10:24:22;;;;;;;3.30;2.00;;;11.50;71.10;;;;;;5018476;28;21135;-46
2022/03/14 10:26:49;;;;;;;3.40;2.20;;;11.50;71.80;;;;;;5018425;28;20467;-46
2022/03/14 10:29:18;;;;;;;2.13;1.80;;;11.50;72.00;;;;;;5018756;28;21026;-46
2022/03/14 10:31:57;;;;;;;6.10;3.57;;;11.60;71.00;;;;;;5019723;28;21030;-46
2022/03/14 10:34:24;;;;;;;2.70;2.10;;;11.70;71.40;;;;;;5017341;28;20456;-46
2022/03/14 10:36:53;;;;;;;2.80;1.70;;;11.80;71.00;;;;;;5015362;28;20874;-46
2022/03/14 10:39:29;;;;;;;5.10;2.87;;;12.00;70.90;;;;;;5018329;28;20463;-46
2022/03/14 10:42:07;;;;;;;7.77;4.27;;;12.10;70.80;;;;;;5015311;28;20552;-45
2022/03/14 10:44:50;;;;;;;2.40;2.20;;;12.20;68.70;;;;;;5020132;28;20471;-46
2022/03/14 10:47:19;;;;;;;2.50;1.90;;;12.30;68.10;;;;;;5019151;28;20932;-46
2022/03/14 10:49:49;;;;;;;2.33;1.87;;;12.40;68.20;;;;;;5014339;28;20499;-47
2022/03/14 10:52:20;;;;;;;2.43;1.90;;;12.40;67.80;;;;;;5015666;28;20444;-45
2022/03/14 10:54:47;;;;;;;2.37;2.10;;;12.40;67.30;;;;;;5015307;28;20466;-46
2022/03/14 10:57:18;;;;;;;4.13;2.30;;;12.30;67.30;;;;;;5015143;28;20463;-45
2022/03/14 10:59:50;;;;;;;3.43;2.17;;;12.20;67.70;;;;;;5016290;28;20491;-46
2022/03/14 11:02:22;;;;;;;4.53;1.90;;;12.10;68.00;;;;;;5016019;28;20487;-46
2022/03/14 11:04:58;;;;;;;3.87;2.40;;;12.10;69.10;;;;;;5015521;28;20965;-46
2022/03/14 11:07:26;;;;;;;2.70;1.63;;;12.10;69.60;;;;;;5018757;28;20455;-46
2022/03/14 11:09:57;;;;;;;3.40;3.10;;;12.10;69.30;;;;;;5014452;28;20459;-46
2022/03/14 11:12:27;;;;;;;3.30;2.50;;;12.10;69.10;;;;;;5016957;28;20463;-46
2022/03/14 11:14:57;;;;;;;3.40;2.40;;;12.10;69.40;;;;;;5014585;28;20468;-46
2022/03/14 11:17:30;;;;;;;2.90;2.40;;;12.10;69.60;;;;;;5013789;28;21171;-46
2022/03/14 11:20:10;;;;;;;3.53;2.83;;;12.10;68.50;;;;;;5020045;28;20900;-46
2022/03/14 11:22:39;;;;;;;2.97;2.30;;;12.20;69.50;;;;;;5014403;28;20460;-46
2022/03/14 11:25:07;;;;;;;5.43;3.00;;;12.20;69.10;;;;;;5016353;28;20821;-45
2022/03/14 11:27:41;;;;;;;6.63;3.00;;;12.30;68.90;;;;;;5021523;28;20487;-46
2022/03/14 11:30:11;;;;;;;5.20;2.77;;;12.20;69.00;;;;;;5018705;28;20802;-46
2022/03/14 11:32:38;;;;;;;2.50;2.20;;;12.20;68.00;;;;;;5021560;28;20448;-45
2022/03/14 11:35:07;;;;;;;3.00;2.20;;;12.20;68.10;;;;;;5017906;28;20447;-46
2022/03/14 11:37:34;;;;;;;5.27;3.00;;;12.20;68.00;;;;;;5016279;28;20472;-46
2022/03/14 11:40:04;;;;;;;2.00;1.57;;;12.20;68.30;;;;;;5013075;28;21027;-46
2022/03/14 11:42:31;;;;;;;8.00;1.87;;;12.10;68.00;;;;;;5016363;28;21756;-46
2022/03/14 11:45:07;;;;;;;3.03;1.60;;;12.10;67.70;;;;;;5009641;28;20819;-45
2022/03/14 11:47:35;;;;;;;2.93;1.90;;;12.00;68.10;;;;;;5013080;28;20523;-45
2022/03/14 11:50:03;;;;;;;4.60;2.03;;;12.00;67.80;;;;;;5011901;28;20462;-45
2022/03/14 11:52:38;;;;;;;4.67;2.53;;;12.00;67.80;;;;;;5021327;28;20471;-45
2022/03/14 11:55:23;;;;;;;3.97;1.73;;;12.10;68.30;;;;;;5009819;28;21061;-45
2022/03/14 11:57:50;;;;;;;2.20;1.40;;;12.10;67.90;;;;;;5013669;28;20478;-45
2022/03/14 12:00:32;;;;;;;4.20;1.80;;;12.20;67.60;;;;;;5030035;28;20501;-45
2022/03/14 12:03:05;;;;;;;2.40;1.60;;;12.20;67.10;;;;;;5018888;28;20459;-45
2022/03/14 12:05:32;;;;;;;3.60;1.43;;;12.30;67.10;;;;;;5007899;28;20459;-45
2022/03/14 12:08:00;;;;;;;3.13;1.00;;;12.30;66.60;;;;;;5016163;28;20987;-45
2022/03/14 12:10:32;;;;;;;1.50;1.20;;;12.20;67.10;;;;;;5031930;28;20465;-48
2022/03/14 12:12:59;;;;;;;1.77;1.30;;;12.20;67.30;;;;;;5043536;28;20846;-49
2022/03/14 12:15:44;;;;;;;1.93;1.00;;;12.20;66.70;;;;;;5037453;28;20453;-48
2022/03/14 12:18:24;;;;;;;1.97;1.10;;;12.10;66.50;;;;;;5021000;28;20554;-48
2022/03/14 12:21:03;;;;;;;1.07;0.97;;;12.10;66.30;;;;;;5036447;28;20511;-48
2022/03/14 12:23:33;;;;;;;1.10;1.00;;;12.10;66.30;;;;;;5041642;28;20469;-48
2022/03/14 12:26:24;;;;;;;1.93;1.10;;;12.10;66.80;;;;;;5034999;28;20497;-48
2022/03/14 12:28:52;;;;;;;4.83;1.83;;;12.10;67.90;;;;;;5050636;28;20479;-48
2022/03/14 12:31:20;;;;;;;2.70;1.60;;;12.10;67.80;;;;;;5034535;28;20467;-48
2022/03/14 12:33:48;;;;;;;2.73;1.37;;;12.20;67.70;;;;;;5021293;28;20466;-48
2022/03/14 12:36:41;;;;;;;2.53;1.50;;;12.40;68.20;;;;;;5034265;28;20452;-48
2022/03/14 12:39:12;;;;;;;3.97;2.70;;;12.60;66.60;;;;;;5033491;28;20535;-49
2022/03/14 12:41:41;;;;;;;1.60;1.50;;;12.70;65.70;;;;;;5033971;28;21838;-48
2022/03/14 12:44:18;;;;;;;2.30;1.20;;;12.90;64.80;;;;;;5030440;28;20452;-49
2022/03/14 12:46:47;;;;;;;2.30;1.53;;;13.00;65.10;;;;;;5015953;28;20884;-49
2022/03/14 12:49:46;;;;;;;1.90;1.00;;;13.00;65.00;;;;;;5019018;28;20551;-49
2022/03/14 12:52:15;;;;;;;6.07;1.40;;;13.10;64.30;;;;;;5024793;28;20757;-49
2022/03/14 12:54:44;;;;;;;3.83;1.40;;;13.20;63.60;;;;;;5036402;28;20527;-49
2022/03/14 12:57:12;;;;;;;1.43;1.33;;;13.30;65.30;;;;;;5036021;28;20453;-49